Select METAR Reports

 

KLWC - Lawrence, Kansas USA
Distance from station: S 12mi, 20km
Updated: 08/18/2019 10:52pm CDT
Mostly cloudy
Mostly cloudy
 Wind from calm
Wind: Calm
Temperature: 75°F , 24°C
Dew Point: 72°F , 22°C
Humidity: 89%
Barometer: 29.92 inHg , 1013.2 hPa
Clouds: Mostly cloudy
Visibility: 10 miles , 16 km
Cloud details: Mostly cloudy 4900 ft
2019/08/19 03:52 KLWC 190352Z AUTO 00000KT 10SM BKN049 24/22 A2992 RMK AO2 SLP123 T02390222
KTOP - Topeka/Billard, Kansas USA
Distance from station: WSW 23mi, 37km
Updated: 08/18/2019 10:53pm CDT
Overcast
Overcast
 Wind from calm
Wind: Calm
Temperature: 79°F , 26°C
Dew Point: 73°F , 23°C
Humidity: 84%
Barometer: 29.91 inHg , 1012.9 hPa
Clouds: Overcast
Visibility: 10 miles , 16 km
Cloud details: Overcast 5000 ft
2019/08/19 03:53 KTOP 190353Z AUTO 00000KT 10SM OVC050 26/23 A2991 RMK AO2 SLP119 T02560228
 
KMCI - Kansas City Intl, Missouri USA
Distance from station: ENE 28mi, 45km
Updated: 08/18/2019 10:58pm CDT
Mostly cloudy
Mostly cloudy
 Wind from N
Wind: N 9 mph , 15 km/h
Temperature: 75°F , 24°C
Dew Point: 70°F , 21°C
Humidity: 83%
Barometer: 29.93 inHg , 1013.5 hPa
Clouds: Mostly cloudy
Visibility: 10 miles , 16 km
Cloud details: Mostly cloudy 4800 ft
2019/08/19 03:58 KMCI 190358Z 35008KT 10SM BKN048 24/21 A2993 RMK AO2 T02440211 $
KFOE - Topeka/Forbes, Kansas USA
Distance from station: SW 29mi, 46km
Updated: 08/18/2019 10:53pm CDT
Overcast
Overcast
 Wind from calm
Wind: Calm
Temperature: 79°F , 26°C
Dew Point: 73°F , 23°C
Humidity: 84%
Barometer: 29.92 inHg , 1013.2 hPa
Clouds: Overcast
Visibility: 10 miles , 16 km
Cloud details: Overcast 4800 ft
2019/08/19 03:53 KFOE 190353Z AUTO 00000KT 10SM OVC048 26/23 A2992 RMK AO2 SLP120 T02560228
 
KIXD - Olathe/Industrial, Kansas USA
Distance from station: SE 32mi, 52km
Updated: 08/18/2019 10:53pm CDT
Clear
Clear
 Wind from SE
Wind: SE 6 mph , 9 km/h
Temperature: 77°F , 25°C
Dew Point: 72°F , 22°C
Humidity: 83%
Barometer: 29.94 inHg , 1013.9 hPa
Clouds: Clear
Visibility: 10 miles , 16 km
2019/08/19 03:53 KIXD 190353Z AUTO 13005KT 10SM CLR 25/22 A2994 RMK AO2 SLP126 T02500217
KMKC - Kansas City/Dntn, Missouri USA
Distance from station: E 35mi, 56km
Updated: 08/18/2019 10:54pm CDT
Clear
Clear
 Wind from calm
Wind: Calm
Temperature: 81°F , 27°C
Heat Index: 85°F , 29°C
Dew Point: 70°F , 21°C
Humidity: 70%
Barometer: 29.91 inHg , 1012.9 hPa
Clouds: Clear
Visibility: 10 miles , 16 km
2019/08/19 03:54 KMKC 190354Z 00000KT 10SM CLR 27/21 A2991 RMK AO2 SLP119 T02720211
 
KMHK - Manhattan, Kansas USA
Distance from station: W 75mi, 120km
Updated: 08/18/2019 10:52pm CDT
Clear
Clear
 Wind from calm
Wind: Calm
Temperature: 73°F , 23°C
Dew Point: 72°F , 22°C
Humidity: 94%
Barometer: 29.92 inHg , 1013.2 hPa
Clouds: Clear
Visibility: 10 miles , 16 km
2019/08/19 03:52 KMHK 190352Z AUTO 00000KT 10SM CLR 23/22 A2992 RMK AO2 SLP119 T02330222
KFRI - Ft Riley/Marshal, Kansas, USA
Distance from station: W 83mi, 133km
Updated: 08/18/2019 9:56pm CDT
Clear
Clear
 Wind from ENE
Wind: ENE 3 mph , 6 km/h
Temperature: 77°F , 25°C
Dew Point: 73°F , 23°C
Humidity: 89%
Barometer: 29.91 inHg , 1012.9 hPa
Clouds: Clear
Visibility: 10 miles , 16 km
2019/08/19 02:56 KFRI 190256Z AUTO 07003KT 10SM CLR 25/23 A2991 RMK AO2 SLP118 T02450225 52014
 
KOMA - Omaha, Nebraska USA
Distance from station: N 148mi, 239km
Updated: 08/18/2019 10:52pm CDT
Partly cloudy
Partly cloudy
 Wind from calm
Wind: Calm
Temperature: 73°F , 23°C
Dew Point: 70°F , 21°C
Humidity: 89%
Barometer: 29.94 inHg , 1013.9 hPa
Clouds: Partly cloudy
Visibility: 10 miles , 16 km
Cloud details: Few Clouds 3000 ft
Partly cloudy 4000 ft
2019/08/19 03:52 KOMA 190352Z 00000KT 10SM FEW030 SCT040 23/21 A2994 RMK AO2 SLP130 T02280206
KICT - Wichita, Kansas USA
Distance from station: SW 176mi, 283km
Updated: 08/18/2019 10:53pm CDT
Clear
Clear
 Wind from ESE
Wind: ESE 10 mph , 17 km/h
Temperature: 82°F , 28°C
Heat Index: 87°F , 31°C
Dew Point: 73°F , 23°C
Humidity: 74%
Barometer: 29.91 inHg , 1012.9 hPa
Clouds: Clear
Visibility: 10 miles , 16 km
2019/08/19 03:53 KICT 190353Z 11009KT 10SM CLR 28/23 A2991 RMK AO2 SLP113 T02780228 $
 
KDSM - Des Moines, Iowa USA
Distance from station: NNE 186mi, 300km
Updated: 08/18/2019 10:54pm CDT
Mostly cloudy
Mostly cloudy
 Wind from E
Wind: E 6 mph , 9 km/h
Temperature: 73°F , 23°C
Dew Point: 66°F , 19°C
Humidity: 78%
Barometer: 29.91 inHg , 1012.9 hPa
Clouds: Mostly cloudy
Visibility: 10 miles , 16 km
Cloud details: Mostly cloudy 5000 ft
2019/08/19 03:54 KDSM 190354Z 08005KT 10SM BKN050 23/19 A2991 RMK AO2 SLP123 T02280189
KGLD - Goodland, Kansas USA
Distance from station: W 380mi, 611km
Updated: 08/18/2019 10:53pm CDT
Clear
Clear
 Wind from SSE
Wind: SSE 8 mph , 13 km/h
Temperature: 70°F , 21°C
Dew Point: 66°F , 19°C
Humidity: 88%
Barometer: 29.98 inHg , 1015.2 hPa
Clouds: Clear
Visibility: 10 miles , 16 km
2019/08/19 03:53 KGLD 190353Z AUTO 15007KT 10SM CLR 21/19 A2998 RMK AO2 SLP112 T02110194
 
KOKC - Oklahoma City, Oklahoma USA
Distance from station: SSW 288mi, 463km
Updated: 08/18/2019 10:52pm CDT
Partly cloudy
Partly cloudy
 Wind from SSE
Wind: SSE 12 mph , 19 km/h
Temperature: 84°F , 29°C
Heat Index: 89°F , 32°C
Dew Point: 72°F , 22°C
Humidity: 66%
Barometer: 29.89 inHg , 1012.2 hPa
Clouds: Partly cloudy
Visibility: 10 miles , 16 km
Cloud details: Partly cloudy 25000 ft
2019/08/19 03:52 KOKC 190352Z 15010KT 10SM SCT250 29/22 A2989 RMK AO2 SLP105 T02890222
KSTL - St Loius, Missouri USA
Distance from station: E 288mi, 463km
Updated: 08/18/2019 10:51pm CDT
Clear
Clear
 Wind from WSW
Wind: WSW 8 mph , 13 km/h
Temperature: 81°F , 27°C
Heat Index: 85°F , 29°C
Dew Point: 70°F , 21°C
Humidity: 70%
Barometer: 29.93 inHg , 1013.5 hPa
Clouds: Clear
Visibility: 10 miles , 16 km
2019/08/19 03:51 KSTL 190351Z 24007KT 10SM CLR 27/21 A2993 RMK AO2 SLP121 T02720211 $
 
KDFW - Dallas/Ft Worth, Texas USA
Distance from station: SSW 452mi, 728km
Updated: 08/18/2019 10:53pm CDT
Mostly cloudy
Mostly cloudy
 Wind from SE
Wind: SE 12 mph , 19 km/h
Temperature: 90°F , 32°C
Heat Index: 93°F , 34°C
Dew Point: 66°F , 19°C
Humidity: 46%
Barometer: 29.87 inHg , 1011.5 hPa
Clouds: Mostly cloudy
Visibility: 10 miles , 16 km
Cloud details: Mostly cloudy 25000 ft
2019/08/19 03:53 KDFW 190353Z 14010KT 10SM BKN250 32/19 A2987 RMK AO2 SLPNO T03220194 $
PHNL - Honolulu, HI USA
Distance from station: WSW 3856mi, 6206km
Updated: 08/18/2019 10:53pm CDT
Mostly cloudy
Mostly cloudy
 Wind from ENE
Wind: ENE 12 mph , 19 km/h
Temperature: 86°F , 30°C
Heat Index: 88°F , 31°C
Dew Point: 66°F , 19°C
Humidity: 52%
Barometer: 29.93 inHg , 1013.5 hPa
Clouds: Mostly cloudy
Visibility: 10 miles , 16 km
Cloud details: Mostly cloudy 6000 ft
2019/08/19 03:53 PHNL 190353Z 06010KT 10SM BKN060 30/19 A2993 RMK AO2 SLP136 T03000189